createdAt,value
2019-03-09T00:00:52.440Z,2.12
2019-03-09T00:02:00.250Z,2.75
2019-03-09T00:03:05.504Z,2.72
2019-03-09T00:04:16.594Z,2.62
2019-03-09T00:05:21.587Z,2.15
2019-03-09T00:06:27.045Z,2.50
2019-03-09T00:07:32.404Z,2.65
2019-03-09T00:08:37.587Z,2.55
2019-03-09T00:09:42.540Z,2.83
2019-03-09T00:10:47.650Z,2.60
2019-03-09T00:11:52.719Z,3.00
2019-03-09T00:12:58.544Z,4.10
2019-03-09T00:14:03.900Z,2.92
2019-03-09T00:15:09.235Z,2.83
2019-03-09T00:16:14.971Z,3.05
2019-03-09T00:17:20.182Z,2.00
2019-03-09T00:18:25.167Z,3.20
2019-03-09T00:19:30.217Z,2.40
2019-03-09T00:20:35.307Z,2.42
2019-03-09T00:21:40.622Z,2.52
2019-03-09T00:22:48.443Z,2.30
2019-03-09T00:24:10.895Z,2.47
2019-03-09T00:25:23.381Z,2.42
2019-03-09T00:26:42.302Z,3.30
2019-03-09T00:28:01.793Z,2.62
2019-03-09T00:29:10.968Z,2.60
2019-03-09T00:30:29.490Z,2.95
2019-03-09T00:31:38.265Z,2.83
2019-03-09T00:32:43.419Z,2.60
2019-03-09T00:33:48.616Z,2.70
2019-03-09T00:34:53.663Z,3.20
2019-03-09T00:35:58.994Z,2.52
2019-03-09T00:37:04.059Z,3.20
2019-03-09T00:38:09.345Z,3.70
2019-03-09T00:39:17.631Z,3.52
2019-03-09T00:40:22.934Z,3.52
2019-03-09T00:41:28.020Z,3.55
2019-03-09T00:42:33.201Z,5.30
2019-03-09T00:43:38.248Z,2.87
2019-03-09T00:44:43.199Z,3.05
2019-03-09T00:45:48.472Z,3.90
2019-03-09T00:46:53.716Z,4.83
2019-03-09T00:47:58.908Z,4.30
2019-03-09T00:49:03.950Z,5.00
2019-03-09T00:50:09.679Z,4.70
2019-03-09T00:51:14.825Z,4.67
2019-03-09T00:52:19.944Z,4.58
2019-03-09T00:53:24.991Z,3.90
2019-03-09T00:54:30.512Z,5.05
2019-03-09T00:55:35.700Z,5.55
2019-03-09T00:56:40.991Z,3.58
2019-03-09T00:57:46.452Z,4.67
2019-03-09T00:58:51.511Z,5.25
2019-03-09T00:59:58.087Z,4.90
2019-03-09T01:01:03.221Z,4.92
2019-03-09T01:02:08.467Z,6.17
2019-03-09T01:03:13.908Z,6.05
2019-03-09T01:04:19.598Z,6.40
2019-03-09T01:05:24.706Z,5.00
2019-03-09T01:06:29.844Z,5.78
2019-03-09T01:07:35.113Z,4.80
2019-03-09T01:08:40.259Z,4.78
2019-03-09T01:09:45.314Z,5.30
2019-03-09T01:10:50.408Z,5.33
2019-03-09T01:11:55.550Z,5.20
2019-03-09T01:13:00.955Z,4.42
2019-03-09T01:14:06.430Z,5.12
2019-03-09T01:15:11.853Z,5.33
2019-03-09T01:16:16.962Z,5.08
2019-03-09T01:17:22.034Z,5.28
2019-03-09T01:18:27.085Z,4.28
2019-03-09T01:19:32.433Z,5.37
2019-03-09T01:20:37.518Z,4.40
2019-03-09T01:21:42.575Z,4.35
2019-03-09T01:22:47.762Z,3.92
2019-03-09T01:23:52.926Z,4.25
2019-03-09T01:24:58.032Z,3.92
2019-03-09T01:26:03.135Z,4.20
2019-03-09T01:27:08.362Z,4.08
2019-03-09T01:28:13.495Z,4.20
2019-03-09T01:29:18.530Z,4.08
2019-03-09T01:30:24.083Z,4.75
2019-03-09T01:31:29.401Z,4.03
2019-03-09T01:32:34.754Z,3.80
2019-03-09T01:33:39.891Z,4.30
2019-03-09T01:34:45.277Z,3.98
2019-03-09T01:35:50.443Z,4.42
2019-03-09T01:36:55.573Z,3.80
2019-03-09T01:38:00.739Z,3.70
2019-03-09T01:39:07.076Z,3.77
2019-03-09T01:40:12.494Z,3.65
2019-03-09T01:41:17.638Z,3.42
2019-03-09T01:42:22.819Z,2.60
2019-03-09T01:43:27.861Z,4.25
2019-03-09T01:44:33.020Z,3.40
2019-03-09T01:45:38.282Z,3.80
2019-03-09T01:46:43.359Z,3.20
2019-03-09T01:47:48.530Z,5.00
2019-03-09T01:48:53.842Z,3.90
2019-03-09T01:49:59.188Z,4.62
2019-03-09T01:51:04.342Z,5.20
2019-03-09T01:52:09.503Z,4.33
2019-03-09T01:53:14.582Z,4.83
2019-03-09T01:54:19.695Z,5.45
2019-03-09T01:55:24.707Z,4.75
2019-03-09T01:56:29.851Z,5.37
2019-03-09T01:57:35.512Z,6.35
2019-03-09T01:58:40.673Z,6.20
2019-03-09T01:59:46.104Z,5.65
2019-03-09T02:00:51.375Z,5.50
2019-03-09T02:01:56.698Z,6.35
2019-03-09T02:03:01.887Z,8.15
2019-03-09T02:04:06.995Z,8.53
2019-03-09T02:05:12.535Z,9.13
2019-03-09T02:06:17.703Z,8.65
2019-03-09T02:07:23.092Z,8.20
2019-03-09T02:08:28.141Z,9.73
2019-03-09T02:09:33.182Z,11.43
2019-03-09T02:10:38.311Z,9.60
2019-03-09T02:11:43.331Z,9.10
2019-03-09T02:12:48.452Z,9.48
2019-03-09T02:13:53.607Z,10.00
2019-03-09T02:14:58.621Z,8.00
2019-03-09T02:16:04.055Z,7.25
2019-03-09T02:17:09.339Z,8.75
2019-03-09T02:18:14.820Z,8.80
2019-03-09T02:19:20.120Z,9.30
2019-03-09T02:20:25.614Z,8.05
2019-03-09T02:21:30.652Z,7.15
2019-03-09T02:22:35.709Z,6.53
2019-03-09T02:23:41.152Z,7.35
2019-03-09T02:24:46.680Z,7.05
2019-03-09T02:25:51.713Z,8.15
2019-03-09T02:26:56.837Z,5.87
2019-03-09T02:28:01.851Z,6.20
2019-03-09T02:29:07.017Z,6.87
2019-03-09T02:30:12.411Z,5.90
2019-03-09T02:31:17.443Z,5.15
2019-03-09T02:32:23.093Z,4.95
2019-03-09T02:33:28.413Z,6.17
2019-03-09T02:34:33.481Z,6.28
2019-03-09T02:35:38.601Z,6.37
2019-03-09T02:36:43.879Z,5.42
2019-03-09T02:37:49.106Z,5.60
2019-03-09T02:39:00.933Z,5.70
2019-03-09T02:40:09.762Z,4.90
2019-03-09T02:41:14.961Z,3.55
2019-03-09T02:42:20.011Z,5.03
2019-03-09T02:43:26.128Z,4.30
2019-03-09T02:44:31.200Z,5.92
2019-03-09T02:45:36.604Z,5.20
2019-03-09T02:46:41.973Z,5.05
2019-03-09T02:47:47.456Z,4.78
2019-03-09T02:48:52.511Z,4.67
2019-03-09T02:49:57.531Z,4.87
2019-03-09T02:51:02.554Z,4.08
2019-03-09T02:52:07.649Z,3.98
2019-03-09T02:53:12.730Z,3.60
2019-03-09T02:54:17.771Z,3.35
2019-03-09T02:55:22.853Z,3.55
2019-03-09T02:56:28.109Z,3.27
2019-03-09T02:57:33.083Z,3.80
2019-03-09T02:58:38.190Z,3.45
2019-03-09T02:59:43.570Z,3.52
2019-03-09T03:00:52.936Z,3.12
2019-03-09T03:02:12.228Z,2.90
2019-03-09T03:03:17.473Z,2.90
2019-03-09T03:04:22.920Z,3.00
2019-03-09T03:05:28.236Z,3.17
2019-03-09T03:06:33.353Z,2.75
2019-03-09T03:07:38.477Z,2.98
2019-03-09T03:08:43.793Z,3.12
2019-03-09T03:09:49.198Z,3.33
2019-03-09T03:10:54.188Z,2.70
2019-03-09T03:11:59.293Z,2.47
2019-03-09T03:13:04.723Z,2.50
2019-03-09T03:14:09.925Z,2.80
2019-03-09T03:15:28.212Z,2.50
2019-03-09T03:16:33.392Z,3.10
2019-03-09T03:17:38.556Z,2.60
2019-03-09T03:18:43.771Z,3.00
2019-03-09T03:19:48.929Z,3.05
2019-03-09T03:20:54.119Z,2.45
2019-03-09T03:21:59.232Z,2.60
2019-03-09T03:23:04.683Z,2.70
2019-03-09T03:24:09.686Z,2.65
2019-03-09T03:25:15.048Z,3.17
2019-03-09T03:26:20.211Z,2.30
2019-03-09T03:27:25.490Z,3.20
2019-03-09T03:28:30.565Z,2.60
2019-03-09T03:29:35.673Z,2.80
2019-03-09T03:30:41.032Z,3.15
2019-03-09T03:31:46.168Z,2.37
2019-03-09T03:32:52.760Z,2.65
2019-03-09T03:33:57.871Z,2.10
2019-03-09T03:35:03.300Z,2.90
2019-03-09T03:36:08.561Z,2.95
2019-03-09T03:37:13.960Z,2.47
2019-03-09T03:38:19.406Z,2.50
2019-03-09T03:39:24.474Z,3.27
2019-03-09T03:40:29.805Z,2.33
2019-03-09T03:41:34.804Z,2.50
2019-03-09T03:42:39.920Z,2.60
2019-03-09T03:43:45.196Z,2.22
2019-03-09T03:44:50.404Z,2.30
2019-03-09T03:45:55.740Z,3.10
2019-03-09T03:47:01.171Z,2.75
2019-03-09T03:48:06.324Z,2.67
2019-03-09T03:49:11.499Z,2.50
2019-03-09T03:50:16.624Z,2.70
2019-03-09T03:51:21.680Z,2.60
2019-03-09T03:52:26.768Z,2.40
2019-03-09T03:53:32.197Z,2.52
2019-03-09T03:54:37.343Z,2.30
2019-03-09T03:55:42.501Z,2.10
2019-03-09T03:56:47.764Z,2.20
2019-03-09T03:57:52.950Z,2.15
2019-03-09T03:58:58.102Z,2.50
2019-03-09T04:00:03.306Z,2.15
2019-03-09T04:01:08.431Z,2.72
2019-03-09T04:02:13.685Z,2.80
2019-03-09T04:03:18.885Z,2.45
2019-03-09T04:04:24.033Z,2.30
2019-03-09T04:05:29.213Z,3.15
2019-03-09T04:06:34.450Z,2.58
2019-03-09T04:07:40.062Z,2.10
2019-03-09T04:08:45.238Z,2.00
2019-03-09T04:09:50.724Z,2.10
2019-03-09T04:10:55.767Z,3.35
2019-03-09T04:12:00.917Z,2.30
2019-03-09T04:13:06.016Z,2.35
2019-03-09T04:14:11.312Z,3.10
2019-03-09T04:15:16.496Z,3.08
2019-03-09T04:16:21.815Z,2.62
2019-03-09T04:17:26.899Z,3.55
2019-03-09T04:18:31.926Z,2.90
2019-03-09T04:19:37.627Z,3.30
2019-03-09T04:20:42.736Z,2.85
2019-03-09T04:21:48.072Z,2.70
2019-03-09T04:22:53.397Z,3.10
2019-03-09T04:23:58.520Z,2.77
2019-03-09T04:25:03.799Z,2.83
2019-03-09T04:26:08.920Z,2.30
2019-03-09T04:27:14.011Z,3.10
2019-03-09T04:28:19.188Z,3.45
2019-03-09T04:29:24.327Z,3.02
2019-03-09T04:30:29.457Z,2.90
2019-03-09T04:31:34.577Z,3.20
2019-03-09T04:32:39.765Z,2.85
2019-03-09T04:33:44.894Z,2.50
2019-03-09T04:34:50.319Z,2.98
2019-03-09T04:35:55.680Z,2.72
2019-03-09T04:37:01.858Z,3.02
2019-03-09T04:38:07.001Z,2.25
2019-03-09T04:39:12.350Z,2.95
2019-03-09T04:40:17.549Z,2.70
2019-03-09T04:41:22.669Z,2.90
2019-03-09T04:42:27.730Z,3.10
2019-03-09T04:43:32.727Z,2.37
2019-03-09T04:44:37.989Z,2.95
2019-03-09T04:45:43.515Z,3.00
2019-03-09T04:46:48.923Z,2.70
2019-03-09T04:47:54.100Z,2.60
2019-03-09T04:48:59.394Z,2.50
2019-03-09T04:50:04.582Z,2.85
2019-03-09T04:51:09.688Z,2.60
2019-03-09T04:52:14.721Z,2.72
2019-03-09T04:53:19.919Z,2.60
2019-03-09T04:54:24.994Z,2.80
2019-03-09T04:55:30.119Z,2.58
2019-03-09T04:56:35.239Z,2.72
2019-03-09T04:57:40.473Z,3.00
2019-03-09T04:58:45.450Z,2.62
2019-03-09T04:59:50.810Z,2.50
2019-03-09T05:00:56.174Z,3.10
2019-03-09T05:02:01.129Z,2.60
2019-03-09T05:03:06.079Z,2.50
2019-03-09T05:04:43.384Z,3.15
2019-03-09T05:05:48.486Z,3.12
2019-03-09T05:06:53.548Z,3.00
2019-03-09T05:08:37.663Z,3.05
2019-03-09T05:10:10.717Z,3.15
2019-03-09T05:11:19.406Z,2.85
2019-03-09T05:12:24.419Z,2.87
2019-03-09T05:13:32.906Z,2.98
2019-03-09T05:14:37.895Z,2.77
2019-03-09T05:15:43.118Z,3.10
2019-03-09T05:16:48.224Z,3.65
2019-03-09T05:17:53.516Z,3.80
2019-03-09T05:19:00.884Z,3.05
2019-03-09T05:20:06.284Z,3.60
2019-03-09T05:21:11.371Z,2.70
2019-03-09T05:22:16.391Z,3.50
2019-03-09T05:23:21.390Z,4.10
2019-03-09T05:24:26.379Z,4.10
2019-03-09T05:25:31.451Z,3.65
2019-03-09T05:26:36.889Z,4.92
2019-03-09T05:27:42.050Z,4.00
2019-03-09T05:28:47.121Z,4.50
2019-03-09T05:29:52.168Z,5.00
2019-03-09T05:30:57.393Z,5.08
2019-03-09T05:32:04.565Z,5.15
2019-03-09T05:33:09.927Z,5.45
2019-03-09T05:34:15.202Z,5.12
2019-03-09T05:35:20.472Z,5.20
2019-03-09T05:36:25.585Z,5.67
2019-03-09T05:37:30.689Z,5.30
2019-03-09T05:38:35.685Z,5.80
2019-03-09T05:39:41.052Z,5.90
2019-03-09T05:40:46.306Z,6.20
2019-03-09T05:41:51.340Z,6.20
2019-03-09T05:42:56.596Z,5.30
2019-03-09T05:44:02.035Z,6.12
2019-03-09T05:45:07.355Z,6.17
2019-03-09T05:46:12.292Z,5.90
2019-03-09T05:47:17.440Z,6.40
2019-03-09T05:48:22.830Z,27.48
2019-03-09T05:49:27.876Z,19.65
2019-03-09T05:50:33.273Z,11.25
2019-03-09T05:51:38.818Z,8.65
2019-03-09T05:52:44.391Z,6.90
2019-03-09T05:53:49.460Z,6.25
2019-03-09T05:54:54.573Z,7.42
2019-03-09T05:55:59.966Z,7.05
2019-03-09T05:57:05.098Z,7.40
2019-03-09T05:58:10.209Z,7.03
2019-03-09T05:59:15.177Z,6.60
2019-03-09T06:00:20.320Z,6.25
2019-03-09T06:01:25.529Z,6.72
2019-03-09T06:02:30.645Z,6.78
2019-03-09T06:03:36.134Z,7.30
2019-03-09T06:04:41.467Z,7.35
2019-03-09T06:05:55.046Z,6.72
2019-03-09T06:07:00.110Z,7.30
2019-03-09T06:08:05.590Z,7.65
2019-03-09T06:09:10.546Z,7.70
2019-03-09T06:10:15.550Z,7.20
2019-03-09T06:11:20.877Z,7.90
2019-03-09T06:12:25.922Z,6.37
2019-03-09T06:13:30.918Z,7.45
2019-03-09T06:14:36.125Z,7.28
2019-03-09T06:15:41.356Z,8.63
2019-03-09T06:16:46.471Z,6.97
2019-03-09T06:17:51.537Z,7.60
2019-03-09T06:18:56.506Z,8.05
2019-03-09T06:20:01.853Z,6.87
2019-03-09T06:21:07.114Z,7.97
2019-03-09T06:22:12.202Z,7.03
2019-03-09T06:23:17.306Z,8.18
2019-03-09T06:24:22.543Z,8.08
2019-03-09T06:25:27.676Z,7.72
2019-03-09T06:26:32.631Z,7.40
2019-03-09T06:27:37.750Z,6.60
2019-03-09T06:28:42.718Z,7.12
2019-03-09T06:29:47.825Z,7.42
2019-03-09T06:30:53.497Z,6.33
2019-03-09T06:32:41.340Z,7.40
2019-03-09T06:33:48.024Z,6.92
2019-03-09T06:34:53.225Z,6.42
2019-03-09T06:36:48.327Z,6.78
2019-03-09T06:38:02.593Z,6.35
2019-03-09T06:39:40.098Z,6.78
2019-03-09T06:40:45.108Z,6.58
2019-03-09T06:42:00.812Z,6.72
2019-03-09T06:43:05.904Z,5.92
2019-03-09T06:44:11.184Z,6.92
2019-03-09T06:45:17.733Z,6.60
2019-03-09T06:46:23.074Z,7.05
2019-03-09T06:47:28.444Z,7.65
2019-03-09T06:48:33.925Z,6.97
2019-03-09T06:49:39.827Z,6.80
2019-03-09T06:50:45.365Z,7.05
2019-03-09T06:51:51.222Z,6.95
2019-03-09T06:52:57.035Z,8.65
2019-03-09T06:54:02.075Z,7.62
2019-03-09T06:55:08.564Z,9.00
2019-03-09T06:56:13.669Z,7.10
2019-03-09T06:57:19.425Z,6.75
2019-03-09T06:58:24.628Z,6.60
2019-03-09T06:59:29.624Z,6.15
2019-03-09T07:00:37.349Z,7.30
2019-03-09T07:01:42.658Z,7.22
2019-03-09T07:02:48.008Z,5.83
2019-03-09T07:03:53.342Z,6.17
2019-03-09T07:04:58.643Z,7.22
2019-03-09T07:06:03.919Z,5.95
2019-03-09T07:07:09.279Z,7.33
2019-03-09T07:08:14.526Z,6.22
2019-03-09T07:09:20.076Z,5.90
2019-03-09T07:10:25.501Z,6.20
2019-03-09T07:11:31.182Z,6.12
2019-03-09T07:12:36.752Z,6.85
2019-03-09T07:13:52.146Z,7.28
2019-03-09T07:15:45.044Z,6.62
2019-03-09T07:16:50.248Z,7.20
2019-03-09T07:18:03.727Z,6.42
2019-03-09T07:19:09.264Z,6.70
2019-03-09T07:20:14.573Z,6.70
2019-03-09T07:21:20.136Z,7.15
2019-03-09T07:22:25.418Z,7.45
2019-03-09T07:23:30.768Z,6.05
2019-03-09T07:24:35.774Z,6.25
2019-03-09T07:25:40.863Z,6.10
2019-03-09T07:26:46.280Z,7.45
2019-03-09T07:28:02.308Z,6.92
2019-03-09T07:29:07.673Z,6.65
2019-03-09T07:30:15.344Z,6.33
2019-03-09T07:31:20.960Z,7.12
2019-03-09T07:32:26.324Z,6.45
2019-03-09T07:33:31.524Z,6.72
2019-03-09T07:34:36.659Z,7.20
2019-03-09T07:35:41.723Z,6.92
2019-03-09T07:36:46.890Z,5.87
2019-03-09T07:37:52.002Z,7.53
2019-03-09T07:38:57.441Z,6.33
2019-03-09T07:40:02.559Z,6.22
2019-03-09T07:41:07.584Z,6.40
2019-03-09T07:42:12.686Z,6.45
2019-03-09T07:43:17.732Z,7.30
2019-03-09T07:44:22.836Z,6.40
2019-03-09T07:45:28.005Z,7.10
2019-03-09T07:46:33.190Z,6.05
2019-03-09T07:47:38.271Z,5.55
2019-03-09T07:48:43.700Z,5.87
2019-03-09T07:49:48.792Z,6.10
2019-03-09T07:50:54.180Z,6.28
2019-03-09T07:51:59.217Z,7.17
2019-03-09T07:53:04.357Z,6.50
2019-03-09T07:54:09.448Z,6.10
2019-03-09T07:55:14.974Z,6.22
2019-03-09T07:56:20.036Z,7.40
2019-03-09T07:57:25.351Z,6.40
2019-03-09T07:58:30.331Z,6.28
2019-03-09T07:59:35.339Z,5.72
2019-03-09T08:00:40.405Z,6.62
2019-03-09T08:01:45.475Z,6.70
2019-03-09T08:02:50.680Z,6.37
2019-03-09T08:03:55.791Z,6.50
2019-03-09T08:05:01.029Z,5.42
2019-03-09T08:06:06.163Z,5.92
2019-03-09T08:07:11.405Z,6.05
2019-03-09T08:08:16.757Z,6.08
2019-03-09T08:09:21.749Z,6.60
2019-03-09T08:10:27.131Z,6.60
2019-03-09T08:11:32.302Z,6.40
2019-03-09T08:12:37.405Z,5.55
2019-03-09T08:13:44.345Z,5.95
2019-03-09T08:14:49.540Z,5.33
2019-03-09T08:15:54.551Z,5.47
2019-03-09T08:16:59.542Z,5.40
2019-03-09T08:18:04.644Z,6.05
2019-03-09T08:19:09.691Z,6.45
2019-03-09T08:20:16.436Z,5.45
2019-03-09T08:21:21.757Z,5.30
2019-03-09T08:22:26.811Z,5.00
2019-03-09T08:23:31.952Z,6.05
2019-03-09T08:24:36.959Z,6.42
2019-03-09T08:25:42.065Z,6.28
2019-03-09T08:26:47.242Z,6.03
2019-03-09T08:27:52.811Z,6.35
2019-03-09T08:28:58.160Z,5.75
2019-03-09T08:30:03.414Z,5.30
2019-03-09T08:31:08.650Z,6.05
2019-03-09T08:32:14.019Z,6.30
2019-03-09T08:33:19.010Z,5.85
2019-03-09T08:34:24.084Z,6.72
2019-03-09T08:35:29.122Z,6.00
2019-03-09T08:36:35.141Z,6.03
2019-03-09T08:37:40.322Z,6.33
2019-03-09T08:38:45.379Z,5.97
2019-03-09T08:39:50.382Z,6.53
2019-03-09T08:40:55.542Z,5.97
2019-03-09T08:42:00.851Z,6.50
2019-03-09T08:43:05.969Z,7.80
2019-03-09T08:44:11.072Z,7.20
2019-03-09T08:45:17.200Z,7.10
2019-03-09T08:46:22.292Z,5.97
2019-03-09T08:47:27.538Z,7.08
2019-03-09T08:48:32.913Z,6.17
2019-03-09T08:49:37.947Z,5.42
2019-03-09T08:50:43.364Z,5.53
2019-03-09T08:51:48.756Z,6.00
2019-03-09T08:52:53.914Z,5.92
2019-03-09T08:53:59.090Z,5.75
2019-03-09T08:55:04.640Z,5.85
2019-03-09T08:56:09.631Z,5.62
2019-03-09T08:57:14.885Z,5.62
2019-03-09T08:58:20.259Z,4.70
2019-03-09T08:59:25.344Z,5.40
2019-03-09T09:00:32.131Z,6.25
2019-03-09T09:01:37.346Z,5.55
2019-03-09T09:02:42.424Z,5.50
2019-03-09T09:03:47.518Z,5.33
2019-03-09T09:04:52.645Z,5.20
2019-03-09T09:05:58.484Z,5.10
2019-03-09T09:07:03.475Z,4.95
2019-03-09T09:08:08.527Z,5.45
2019-03-09T09:09:13.822Z,5.70
2019-03-09T09:10:18.955Z,5.03
2019-03-09T09:11:23.963Z,4.35
2019-03-09T09:12:29.047Z,5.65
2019-03-09T09:13:34.346Z,4.53
2019-03-09T09:14:39.380Z,4.30
2019-03-09T09:15:44.449Z,4.72
2019-03-09T09:16:49.818Z,4.58
2019-03-09T09:17:54.889Z,4.80
2019-03-09T09:18:59.956Z,5.03
2019-03-09T09:20:05.842Z,5.12
2019-03-09T09:21:10.999Z,5.30
2019-03-09T09:22:16.161Z,4.30
2019-03-09T09:23:21.530Z,4.62
2019-03-09T09:24:26.657Z,4.87
2019-03-09T09:25:31.610Z,4.87
2019-03-09T09:26:37.059Z,5.28
2019-03-09T09:27:42.263Z,4.45
2019-03-09T09:28:47.353Z,4.33
2019-03-09T09:29:52.780Z,4.60
2019-03-09T09:30:58.302Z,3.85
2019-03-09T09:32:03.426Z,4.22
2019-03-09T09:33:08.544Z,4.20
2019-03-09T09:34:13.577Z,3.90
2019-03-09T09:35:18.932Z,3.70
2019-03-09T09:36:24.693Z,4.25
2019-03-09T09:37:29.920Z,4.20
2019-03-09T09:38:34.996Z,4.15
2019-03-09T09:39:40.031Z,4.58
2019-03-09T09:40:45.249Z,3.70
2019-03-09T09:41:50.655Z,4.00
2019-03-09T09:42:55.859Z,4.05
2019-03-09T09:44:00.964Z,4.03
2019-03-09T09:45:07.027Z,3.92
2019-03-09T09:46:12.231Z,3.85
2019-03-09T09:47:17.392Z,3.90
2019-03-09T09:48:22.817Z,4.15
2019-03-09T09:49:27.952Z,4.22
2019-03-09T09:50:33.109Z,4.40
2019-03-09T09:51:38.198Z,4.50
2019-03-09T09:52:43.394Z,4.28
2019-03-09T09:53:48.487Z,3.60
2019-03-09T09:54:53.855Z,3.20
2019-03-09T09:55:59.118Z,3.00
2019-03-09T09:57:04.149Z,3.70
2019-03-09T09:58:09.264Z,3.58
2019-03-09T09:59:14.679Z,4.00
2019-03-09T10:00:24.444Z,5.10
2019-03-09T10:01:29.558Z,3.75
2019-03-09T10:02:34.647Z,3.80
2019-03-09T10:03:40.331Z,4.10
2019-03-09T10:04:45.436Z,3.50
2019-03-09T10:05:50.633Z,4.17
2019-03-09T10:06:55.608Z,3.37
2019-03-09T10:08:00.664Z,4.00
2019-03-09T10:09:07.020Z,3.60
2019-03-09T10:10:13.867Z,3.83
2019-03-09T10:11:19.265Z,4.10
2019-03-09T10:12:24.341Z,3.50
2019-03-09T10:13:29.470Z,3.22
2019-03-09T10:14:34.576Z,4.12
2019-03-09T10:15:39.854Z,3.75
2019-03-09T10:16:44.899Z,3.80
2019-03-09T10:17:50.066Z,3.85
2019-03-09T10:18:55.335Z,3.20
2019-03-09T10:20:00.341Z,3.47
2019-03-09T10:21:05.459Z,3.35
2019-03-09T10:22:10.528Z,4.28
2019-03-09T10:23:15.572Z,3.50
2019-03-09T10:24:20.659Z,3.85
2019-03-09T10:25:25.839Z,3.58
2019-03-09T10:26:30.831Z,3.90
2019-03-09T10:27:35.893Z,3.30
2019-03-09T10:28:41.606Z,3.62
2019-03-09T10:29:46.666Z,3.58
2019-03-09T10:30:51.713Z,3.17
2019-03-09T10:31:57.145Z,3.33
2019-03-09T10:33:02.221Z,3.75
2019-03-09T10:34:07.318Z,3.50
2019-03-09T10:35:12.768Z,3.10
2019-03-09T10:36:17.727Z,2.77
2019-03-09T10:37:22.902Z,4.65
2019-03-09T10:38:28.223Z,3.80
2019-03-09T10:39:33.479Z,3.20
2019-03-09T10:40:38.725Z,3.62
2019-03-09T10:41:43.784Z,4.00
2019-03-09T10:42:48.920Z,3.30
2019-03-09T10:43:54.014Z,3.35
2019-03-09T10:44:59.159Z,3.20
2019-03-09T10:46:04.582Z,3.60
2019-03-09T10:47:09.608Z,3.60
2019-03-09T10:48:14.898Z,3.20
2019-03-09T10:49:19.961Z,3.50
2019-03-09T10:50:26.109Z,3.42
2019-03-09T10:51:31.344Z,3.72
2019-03-09T10:52:37.125Z,5.00
2019-03-09T10:53:42.294Z,4.40
2019-03-09T10:54:47.740Z,4.62
2019-03-09T10:55:55.917Z,4.10
2019-03-09T10:57:01.138Z,3.65
2019-03-09T10:58:06.250Z,4.10
2019-03-09T10:59:11.466Z,4.17
2019-03-09T11:00:28.348Z,4.55
2019-03-09T11:01:33.568Z,3.30
2019-03-09T11:02:38.617Z,3.30
2019-03-09T11:03:43.729Z,3.72
2019-03-09T11:04:48.941Z,3.55
2019-03-09T11:05:54.148Z,3.90
2019-03-09T11:06:59.053Z,3.72
2019-03-09T11:08:04.728Z,4.40
2019-03-09T11:09:09.815Z,4.50
2019-03-09T11:10:15.108Z,4.55
2019-03-09T11:11:20.211Z,5.50
2019-03-09T11:12:25.318Z,4.10
2019-03-09T11:13:30.620Z,4.60
2019-03-09T11:14:35.726Z,4.37
2019-03-09T11:15:40.930Z,4.85
2019-03-09T11:16:45.991Z,3.45
2019-03-09T11:17:51.026Z,4.37
2019-03-09T11:18:56.090Z,3.87
2019-03-09T11:20:01.461Z,3.95
2019-03-09T11:21:06.778Z,4.37
2019-03-09T11:22:11.932Z,3.30
2019-03-09T11:23:17.034Z,4.30
2019-03-09T11:24:22.142Z,3.10
2019-03-09T11:25:27.421Z,3.05
2019-03-09T11:26:32.507Z,3.85
2019-03-09T11:27:37.742Z,3.60
2019-03-09T11:28:43.128Z,3.40
2019-03-09T11:29:48.438Z,3.90
2019-03-09T11:30:53.583Z,3.80
2019-03-09T11:31:58.882Z,3.83
2019-03-09T11:33:05.875Z,3.60
2019-03-09T11:34:10.799Z,3.80
2019-03-09T11:35:16.011Z,2.60
2019-03-09T11:36:21.116Z,3.70
2019-03-09T11:37:26.791Z,3.00
2019-03-09T11:38:31.940Z,3.12
2019-03-09T11:39:37.451Z,3.00
2019-03-09T11:40:42.641Z,3.75
2019-03-09T11:41:47.779Z,2.80
2019-03-09T11:42:53.185Z,3.12
2019-03-09T11:43:58.339Z,5.15
2019-03-09T11:45:03.601Z,3.80
2019-03-09T11:46:08.778Z,3.80
2019-03-09T11:47:13.836Z,2.65
2019-03-09T11:48:18.885Z,3.00
2019-03-09T11:49:24.057Z,2.98
2019-03-09T11:50:29.543Z,2.33
2019-03-09T11:51:34.619Z,3.95
2019-03-09T11:52:39.836Z,3.00
2019-03-09T11:53:45.205Z,2.90
2019-03-09T11:54:50.552Z,2.65
2019-03-09T11:55:55.538Z,2.50
2019-03-09T11:57:00.496Z,3.52
2019-03-09T11:58:05.645Z,2.85
2019-03-09T11:59:10.912Z,2.80
2019-03-09T12:00:19.520Z,2.72
2019-03-09T12:01:24.515Z,2.45
2019-03-09T12:02:38.527Z,2.95
2019-03-09T12:03:36.322Z,2.45
2019-03-09T12:04:46.598Z,2.22
2019-03-09T12:05:48.304Z,2.47
2019-03-09T12:06:53.473Z,2.90
2019-03-09T12:07:58.591Z,2.70
2019-03-09T12:09:05.499Z,3.30
2019-03-09T12:10:10.809Z,2.10
2019-03-09T12:11:15.886Z,2.05
2019-03-09T12:12:21.138Z,2.15
2019-03-09T12:13:26.144Z,2.10
2019-03-09T12:14:31.309Z,2.25
2019-03-09T12:15:36.467Z,1.80
2019-03-09T12:16:41.512Z,2.60
2019-03-09T12:17:46.624Z,3.67
2019-03-09T12:18:51.620Z,2.10
2019-03-09T12:20:02.701Z,1.90
2019-03-09T12:21:08.158Z,2.58
2019-03-09T12:22:13.398Z,2.80
2019-03-09T12:23:23.085Z,2.00
2019-03-09T12:24:28.161Z,2.75
2019-03-09T12:25:33.220Z,1.87
2019-03-09T12:26:38.217Z,1.90
2019-03-09T12:27:43.350Z,1.98
2019-03-09T12:28:48.686Z,2.35
2019-03-09T12:29:53.715Z,1.90
2019-03-09T12:31:01.565Z,2.25
2019-03-09T12:32:06.669Z,2.87
2019-03-09T12:33:11.767Z,1.95
2019-03-09T12:34:16.749Z,3.72
2019-03-09T12:35:21.910Z,2.80
2019-03-09T12:36:26.985Z,2.00
2019-03-09T12:37:32.103Z,2.50
2019-03-09T12:38:37.357Z,2.45
2019-03-09T12:39:42.419Z,2.42
2019-03-09T12:40:47.842Z,2.70
2019-03-09T12:41:52.907Z,2.80
2019-03-09T12:42:57.982Z,2.25
2019-03-09T12:44:03.130Z,2.90
2019-03-09T12:45:09.254Z,2.65
2019-03-09T12:46:14.585Z,3.02
2019-03-09T12:47:19.645Z,3.10
2019-03-09T12:48:24.777Z,3.10
2019-03-09T12:49:29.968Z,3.08
2019-03-09T12:50:35.157Z,3.85
2019-03-09T12:51:40.220Z,3.83
2019-03-09T12:52:45.520Z,3.45
2019-03-09T12:53:51.355Z,4.75
2019-03-09T12:54:56.528Z,4.20
2019-03-09T12:56:01.537Z,3.65
2019-03-09T12:57:06.659Z,3.75
2019-03-09T12:58:12.014Z,5.30
2019-03-09T12:59:17.486Z,5.15
2019-03-09T13:00:22.606Z,4.12
2019-03-09T13:01:27.767Z,4.35
2019-03-09T13:02:32.746Z,3.80
2019-03-09T13:03:37.976Z,4.80
2019-03-09T13:04:43.191Z,4.20
2019-03-09T13:05:48.506Z,4.28
2019-03-09T13:06:53.645Z,4.55
2019-03-09T13:07:58.770Z,4.28
2019-03-09T13:09:04.901Z,3.65
2019-03-09T13:10:10.399Z,5.08
2019-03-09T13:11:15.454Z,4.78
2019-03-09T13:12:20.581Z,5.62
2019-03-09T13:13:25.686Z,5.10
2019-03-09T13:14:31.370Z,4.78
2019-03-09T13:15:36.476Z,5.00
2019-03-09T13:16:41.560Z,4.30
2019-03-09T13:17:46.983Z,5.30
2019-03-09T13:18:52.378Z,5.03
2019-03-09T13:19:57.495Z,3.37
2019-03-09T13:21:03.168Z,4.92
2019-03-09T13:22:08.407Z,5.15
2019-03-09T13:23:13.571Z,4.75
2019-03-09T13:24:19.107Z,5.30
2019-03-09T13:25:24.348Z,4.75
2019-03-09T13:26:29.750Z,5.58
2019-03-09T13:27:34.931Z,4.37
2019-03-09T13:28:40.051Z,5.20
2019-03-09T13:29:45.237Z,5.92
2019-03-09T13:30:50.798Z,4.72
2019-03-09T13:31:55.824Z,5.75
2019-03-09T13:33:01.002Z,5.40
2019-03-09T13:34:06.365Z,6.00
2019-03-09T13:35:11.566Z,5.50
2019-03-09T13:36:16.754Z,5.55
2019-03-09T13:37:21.860Z,6.15
2019-03-09T13:38:27.000Z,6.33
2019-03-09T13:39:32.081Z,5.95
2019-03-09T13:40:37.258Z,5.87
2019-03-09T13:41:42.428Z,6.15
2019-03-09T13:42:47.489Z,6.33
2019-03-09T13:43:52.610Z,6.50
2019-03-09T13:44:57.642Z,6.05
2019-03-09T13:46:03.030Z,5.75
2019-03-09T13:47:08.108Z,5.12
2019-03-09T13:48:13.487Z,4.55
2019-03-09T13:49:18.648Z,6.37
2019-03-09T13:50:24.072Z,6.20
2019-03-09T13:51:29.187Z,5.47
2019-03-09T13:52:34.531Z,5.60
2019-03-09T13:53:39.650Z,5.75
2019-03-09T13:54:45.034Z,6.22
2019-03-09T13:55:52.102Z,6.00
2019-03-09T13:56:57.263Z,5.30
2019-03-09T13:58:02.404Z,5.03
2019-03-09T13:59:07.519Z,6.08
2019-03-09T14:00:13.909Z,4.85
2019-03-09T14:01:18.934Z,6.55
2019-03-09T14:02:24.042Z,6.72
2019-03-09T14:03:29.192Z,6.55
2019-03-09T14:04:34.711Z,5.70
2019-03-09T14:05:39.861Z,6.58
2019-03-09T14:06:45.174Z,7.65
2019-03-09T14:07:50.283Z,6.83
2019-03-09T14:08:55.615Z,6.30
2019-03-09T14:10:00.932Z,7.70
2019-03-09T14:11:06.160Z,5.87
2019-03-09T14:12:11.310Z,6.85
2019-03-09T14:13:16.373Z,6.28
2019-03-09T14:14:21.630Z,6.50
2019-03-09T14:15:26.819Z,6.60
2019-03-09T14:16:31.910Z,5.55
2019-03-09T14:17:37.041Z,5.67
2019-03-09T14:18:42.391Z,5.15
2019-03-09T14:19:47.611Z,6.33
2019-03-09T14:20:52.636Z,5.78
2019-03-09T14:21:57.678Z,5.22
2019-03-09T14:23:02.694Z,7.22
2019-03-09T14:24:07.760Z,6.33
2019-03-09T14:25:12.954Z,7.25
2019-03-09T14:26:17.954Z,6.17
2019-03-09T14:27:23.219Z,4.78
2019-03-09T14:28:28.163Z,4.50
2019-03-09T14:29:33.241Z,4.85
2019-03-09T14:30:38.407Z,5.42
2019-03-09T14:31:43.809Z,5.60
2019-03-09T14:32:48.938Z,6.30
2019-03-09T14:33:53.903Z,5.12
2019-03-09T14:34:59.223Z,4.30
2019-03-09T14:36:04.610Z,5.92
2019-03-09T14:37:09.762Z,5.72